createdAt,value
2023-03-29T00:00:04.795Z,0.00
2023-03-29T00:01:04.778Z,0.00
2023-03-29T00:02:04.850Z,0.00
2023-03-29T00:03:04.924Z,0.00
2023-03-29T00:04:04.931Z,0.00
2023-03-29T00:05:04.742Z,0.00
2023-03-29T00:06:04.711Z,0.00
2023-03-29T00:07:04.999Z,0.00
2023-03-29T00:08:04.847Z,0.00
2023-03-29T00:09:04.666Z,0.00
2023-03-29T00:10:04.677Z,0.00
2023-03-29T00:11:04.890Z,0.00
2023-03-29T00:12:04.632Z,0.00
2023-03-29T00:13:04.612Z,0.00
2023-03-29T00:14:04.914Z,0.00
2023-03-29T00:15:04.582Z,0.00
2023-03-29T00:16:04.573Z,0.00
2023-03-29T00:17:04.631Z,0.00
2023-03-29T00:18:04.576Z,0.00
2023-03-29T00:19:04.533Z,0.00
2023-03-29T00:20:04.527Z,0.00
2023-03-29T00:21:04.739Z,0.00
2023-03-29T00:22:04.485Z,0.00
2023-03-29T00:23:04.485Z,0.00
2023-03-29T00:24:04.453Z,0.00
2023-03-29T00:25:04.468Z,0.00
2023-03-29T00:26:07.729Z,0.00
2023-03-29T00:27:04.422Z,0.00
2023-03-29T00:28:04.407Z,0.00
2023-03-29T00:29:04.390Z,0.00
2023-03-29T00:30:04.381Z,0.00
2023-03-29T00:31:04.729Z,0.00
2023-03-29T00:32:04.350Z,0.00
2023-03-29T00:33:04.370Z,0.00
2023-03-29T00:34:04.344Z,0.00
2023-03-29T00:35:04.309Z,0.00
2023-03-29T00:36:04.381Z,0.00
2023-03-29T00:37:04.363Z,0.00
2023-03-29T00:38:04.365Z,0.00
2023-03-29T00:39:04.404Z,0.00
2023-03-29T00:40:04.440Z,0.00
2023-03-29T00:41:04.567Z,0.00
2023-03-29T00:42:04.614Z,0.00
2023-03-29T00:43:04.201Z,0.00
2023-03-29T00:44:04.190Z,0.00
2023-03-29T00:45:04.219Z,0.00
2023-03-29T00:46:04.173Z,0.00
2023-03-29T00:47:04.147Z,0.00
2023-03-29T00:48:04.158Z,0.00
2023-03-29T00:49:04.109Z,0.00
2023-03-29T00:50:04.127Z,0.00
2023-03-29T00:51:04.442Z,0.00
2023-03-29T00:52:04.076Z,0.00
2023-03-29T00:53:04.056Z,0.00
2023-03-29T00:54:04.049Z,0.00
2023-03-29T00:55:04.028Z,0.00
2023-03-29T00:56:04.024Z,0.00
2023-03-29T00:57:04.081Z,0.00
2023-03-29T00:58:03.993Z,0.00
2023-03-29T00:59:03.975Z,0.00
2023-03-29T01:00:04.018Z,0.00
2023-03-29T01:01:04.244Z,0.00
2023-03-29T01:02:04.056Z,0.00
2023-03-29T01:03:04.327Z,0.00
2023-03-29T01:04:04.020Z,0.00
2023-03-29T01:05:03.930Z,0.00
2023-03-29T01:06:03.938Z,0.00
2023-03-29T01:07:03.920Z,0.00
2023-03-29T01:08:03.867Z,0.00
2023-03-29T01:09:03.839Z,0.00
2023-03-29T01:10:03.842Z,0.00
2023-03-29T01:11:04.040Z,0.00
2023-03-29T01:12:03.793Z,0.00
2023-03-29T01:13:03.808Z,0.00
2023-03-29T01:14:03.785Z,0.00
2023-03-29T01:15:04.216Z,0.00
2023-03-29T01:16:03.973Z,0.00
2023-03-29T01:17:03.746Z,0.00
2023-03-29T01:18:03.757Z,0.00
2023-03-29T01:19:03.707Z,0.00
2023-03-29T01:20:03.695Z,0.00
2023-03-29T01:21:03.795Z,0.00
2023-03-29T01:22:03.696Z,0.00
2023-03-29T01:23:03.647Z,0.00
2023-03-29T01:24:03.638Z,0.00
2023-03-29T01:25:03.619Z,0.00
2023-03-29T01:26:03.613Z,0.00
2023-03-29T01:27:03.599Z,0.00
2023-03-29T01:28:03.840Z,0.00
2023-03-29T01:29:03.562Z,0.00
2023-03-29T01:30:03.560Z,0.00
2023-03-29T01:31:03.765Z,0.00
2023-03-29T01:32:03.660Z,0.00
2023-03-29T01:33:03.561Z,0.00
2023-03-29T01:34:03.496Z,0.00
2023-03-29T01:35:03.643Z,0.00
2023-03-29T01:36:03.567Z,0.00
2023-03-29T01:37:03.446Z,0.00
2023-03-29T01:38:03.469Z,0.00
2023-03-29T01:39:03.432Z,0.00
2023-03-29T01:40:03.418Z,0.00
2023-03-29T01:41:03.697Z,0.00
2023-03-29T01:42:03.387Z,0.00
2023-03-29T01:43:03.369Z,0.00
2023-03-29T01:44:03.370Z,0.00
2023-03-29T01:45:03.362Z,0.00
2023-03-29T01:46:03.411Z,0.00
2023-03-29T01:47:03.309Z,0.00
2023-03-29T01:48:03.336Z,0.00
2023-03-29T01:49:03.286Z,0.00
2023-03-29T01:50:03.274Z,0.00
2023-03-29T01:51:03.461Z,0.00
2023-03-29T01:52:03.243Z,0.00
2023-03-29T01:53:03.233Z,0.00
2023-03-29T01:54:03.237Z,0.00
2023-03-29T01:55:03.240Z,0.00
2023-03-29T01:56:03.187Z,0.00
2023-03-29T01:57:03.213Z,0.00
2023-03-29T01:58:03.164Z,0.00
2023-03-29T01:59:03.149Z,0.00
2023-03-29T02:00:03.161Z,0.00
2023-03-29T02:01:03.440Z,0.00
2023-03-29T02:02:03.108Z,0.00
2023-03-29T02:03:03.224Z,0.00
2023-03-29T02:04:03.087Z,0.00
2023-03-29T02:05:03.098Z,0.00
2023-03-29T02:06:03.057Z,0.00
2023-03-29T02:07:03.030Z,0.00
2023-03-29T02:08:03.019Z,0.00
2023-03-29T02:09:03.011Z,0.00
2023-03-29T02:10:03.013Z,0.00
2023-03-29T02:11:03.168Z,0.00
2023-03-29T02:12:02.966Z,0.00
2023-03-29T02:13:02.953Z,0.00
2023-03-29T02:14:02.939Z,0.00
2023-03-29T02:15:02.937Z,0.00
2023-03-29T02:16:02.997Z,0.00
2023-03-29T02:17:02.891Z,0.00
2023-03-29T02:18:02.917Z,0.00
2023-03-29T02:19:02.873Z,0.00
2023-03-29T02:20:02.851Z,0.00
2023-03-29T02:21:03.071Z,0.00
2023-03-29T02:22:02.830Z,0.00
2023-03-29T02:23:02.812Z,0.00
2023-03-29T02:24:02.802Z,0.00
2023-03-29T02:25:02.784Z,0.00
2023-03-29T02:26:02.799Z,0.00
2023-03-29T02:27:02.759Z,0.00
2023-03-29T02:28:02.751Z,0.00
2023-03-29T02:29:02.731Z,0.00
2023-03-29T02:30:02.733Z,0.00
2023-03-29T02:31:02.967Z,0.00
2023-03-29T02:32:02.697Z,0.00
2023-03-29T02:33:02.718Z,0.00
2023-03-29T02:34:02.664Z,0.00
2023-03-29T02:35:02.649Z,0.00
2023-03-29T02:36:02.692Z,0.00
2023-03-29T02:37:02.618Z,0.00
2023-03-29T02:38:02.609Z,0.00
2023-03-29T02:39:02.594Z,0.00
2023-03-29T02:40:02.577Z,0.00
2023-03-29T02:41:02.838Z,0.00
2023-03-29T02:42:02.567Z,0.00
2023-03-29T02:43:02.544Z,0.00
2023-03-29T02:44:02.717Z,0.00
2023-03-29T02:45:02.510Z,0.00
2023-03-29T02:46:02.496Z,0.00
2023-03-29T02:47:02.554Z,0.00
2023-03-29T02:48:02.600Z,0.00
2023-03-29T02:49:02.457Z,0.00
2023-03-29T02:50:02.451Z,0.00
2023-03-29T02:51:02.731Z,0.00
2023-03-29T02:52:02.412Z,0.00
2023-03-29T02:53:02.397Z,0.00
2023-03-29T02:54:02.384Z,0.00
2023-03-29T02:55:02.381Z,0.00
2023-03-29T02:56:02.413Z,0.00
2023-03-29T02:57:02.414Z,0.00
2023-03-29T02:58:02.360Z,0.00
2023-03-29T02:59:02.334Z,0.00
2023-03-29T03:00:02.306Z,0.00
2023-03-29T03:01:02.592Z,0.00
2023-03-29T03:02:02.320Z,0.00
2023-03-29T03:03:02.450Z,0.00
2023-03-29T03:04:02.316Z,0.00
2023-03-29T03:05:02.235Z,0.00
2023-03-29T03:06:02.229Z,0.00
2023-03-29T03:07:02.212Z,0.00
2023-03-29T03:08:02.198Z,0.00
2023-03-29T03:09:02.188Z,0.00
2023-03-29T03:10:02.179Z,0.00
2023-03-29T03:11:02.404Z,0.00
2023-03-29T03:12:02.141Z,0.00
2023-03-29T03:13:02.156Z,0.00
2023-03-29T03:14:02.149Z,0.00
2023-03-29T03:15:02.105Z,0.00
2023-03-29T03:16:02.111Z,0.00
2023-03-29T03:17:04.597Z,0.00
2023-03-29T03:18:02.136Z,0.00
2023-03-29T03:19:02.046Z,0.00
2023-03-29T03:20:02.043Z,0.00
2023-03-29T03:21:02.505Z,0.00
2023-03-29T03:22:01.997Z,0.00
2023-03-29T03:23:01.984Z,0.00
2023-03-29T03:24:01.975Z,0.00
2023-03-29T03:25:01.963Z,0.00
2023-03-29T03:26:01.949Z,0.00
2023-03-29T03:27:01.954Z,0.00
2023-03-29T03:28:02.058Z,0.00
2023-03-29T03:29:01.917Z,0.00
2023-03-29T03:30:01.924Z,0.00
2023-03-29T03:31:02.176Z,0.00
2023-03-29T03:32:01.895Z,0.00
2023-03-29T03:33:01.899Z,0.00
2023-03-29T03:34:01.856Z,0.00
2023-03-29T03:35:01.816Z,0.00
2023-03-29T03:36:01.838Z,0.00
2023-03-29T03:37:01.945Z,0.00
2023-03-29T03:38:01.797Z,0.00
2023-03-29T03:39:01.776Z,0.00
2023-03-29T03:40:01.804Z,0.00
2023-03-29T03:41:02.009Z,0.00
2023-03-29T03:42:01.716Z,0.00
2023-03-29T03:43:01.730Z,0.00
2023-03-29T03:44:01.712Z,0.00
2023-03-29T03:45:01.701Z,0.00
2023-03-29T03:46:01.810Z,0.00
2023-03-29T03:47:01.651Z,0.00
2023-03-29T03:48:01.698Z,0.00
2023-03-29T03:49:01.920Z,0.00
2023-03-29T03:50:01.663Z,0.00
2023-03-29T03:51:01.853Z,0.00
2023-03-29T03:52:01.578Z,0.00
2023-03-29T03:53:01.565Z,0.00
2023-03-29T03:54:01.543Z,0.00
2023-03-29T03:55:01.533Z,0.00
2023-03-29T03:56:01.525Z,0.00
2023-03-29T03:57:01.545Z,0.00
2023-03-29T03:58:01.504Z,0.00
2023-03-29T03:59:01.476Z,0.00
2023-03-29T04:00:01.489Z,0.00
2023-03-29T04:01:01.749Z,0.00
2023-03-29T04:02:01.708Z,0.00
2023-03-29T04:03:01.645Z,0.00
2023-03-29T04:04:01.753Z,0.00
2023-03-29T04:05:01.406Z,0.00
2023-03-29T04:06:01.384Z,0.00
2023-03-29T04:07:01.376Z,0.00
2023-03-29T04:08:01.355Z,0.00
2023-03-29T04:09:01.353Z,0.00
2023-03-29T04:10:01.324Z,0.00
2023-03-29T04:11:01.634Z,0.00
2023-03-29T04:12:01.311Z,0.00
2023-03-29T04:13:01.287Z,0.00
2023-03-29T04:14:01.279Z,0.00
2023-03-29T04:15:01.306Z,0.00
2023-03-29T04:16:01.982Z,0.00
2023-03-29T04:17:01.246Z,0.00
2023-03-29T04:18:01.380Z,0.00
2023-03-29T04:19:01.265Z,0.00
2023-03-29T04:20:01.187Z,0.00
2023-03-29T04:21:01.513Z,0.00
2023-03-29T04:22:01.714Z,0.00
2023-03-29T04:23:01.169Z,0.00
2023-03-29T04:24:01.137Z,0.00
2023-03-29T04:25:01.130Z,0.00
2023-03-29T04:26:01.109Z,0.00
2023-03-29T04:27:01.296Z,0.00
2023-03-29T04:28:01.092Z,0.00
2023-03-29T04:29:01.070Z,0.00
2023-03-29T04:30:01.059Z,0.00
2023-03-29T04:31:01.404Z,0.00
2023-03-29T04:32:01.674Z,0.00
2023-03-29T04:33:01.098Z,0.00
2023-03-29T04:34:01.019Z,0.00
2023-03-29T04:35:00.993Z,0.00
2023-03-29T04:36:01.006Z,0.00
2023-03-29T04:37:00.957Z,0.00
2023-03-29T04:38:00.955Z,0.00
2023-03-29T04:39:00.929Z,0.00
2023-03-29T04:40:00.920Z,0.00
2023-03-29T04:41:01.320Z,0.00
2023-03-29T04:42:00.883Z,0.00
2023-03-29T04:43:01.011Z,0.00
2023-03-29T04:44:00.856Z,0.00
2023-03-29T04:45:00.987Z,0.00
2023-03-29T04:46:01.141Z,0.00
2023-03-29T04:47:00.819Z,0.00
2023-03-29T04:48:00.968Z,0.00
2023-03-29T04:49:00.785Z,0.00
2023-03-29T04:50:00.797Z,0.00
2023-03-29T04:51:01.095Z,0.00
2023-03-29T04:52:00.744Z,0.00
2023-03-29T04:53:00.733Z,0.00
2023-03-29T04:54:00.738Z,0.00
2023-03-29T04:55:00.731Z,0.00
2023-03-29T04:56:00.706Z,0.00
2023-03-29T04:57:00.696Z,0.00
2023-03-29T04:58:00.681Z,0.00
2023-03-29T04:59:00.659Z,0.00
2023-03-29T05:00:00.640Z,0.00
2023-03-29T05:01:00.696Z,0.00
2023-03-29T05:02:00.643Z,0.00
2023-03-29T05:03:00.690Z,0.00
2023-03-29T05:04:00.590Z,0.00
2023-03-29T05:05:00.569Z,0.00
2023-03-29T05:06:00.580Z,5.62
2023-03-29T05:07:00.589Z,5.62
2023-03-29T05:08:00.527Z,5.62
2023-03-29T05:09:00.510Z,5.62
2023-03-29T05:10:00.518Z,5.62
2023-03-29T05:11:00.789Z,5.62
2023-03-29T05:12:00.474Z,5.62
2023-03-29T05:13:00.463Z,5.62
2023-03-29T05:14:00.444Z,11.25
2023-03-29T05:15:00.435Z,11.25
2023-03-29T05:16:00.502Z,11.25
2023-03-29T05:17:00.395Z,11.25
2023-03-29T05:18:00.521Z,16.88
2023-03-29T05:19:00.375Z,16.88
2023-03-29T05:20:00.365Z,22.50
2023-03-29T05:21:00.601Z,22.50
2023-03-29T05:22:00.362Z,22.50
2023-03-29T05:23:00.336Z,28.12
2023-03-29T05:24:00.309Z,28.12
2023-03-29T05:25:00.293Z,28.12
2023-03-29T05:26:00.294Z,28.12
2023-03-29T05:27:00.272Z,28.12
2023-03-29T05:28:00.252Z,28.12
2023-03-29T05:29:00.236Z,33.75
2023-03-29T05:30:00.518Z,33.75
2023-03-29T05:31:00.490Z,33.75
2023-03-29T05:32:00.237Z,33.75
2023-03-29T05:33:00.195Z,39.38
2023-03-29T05:34:00.180Z,39.38
2023-03-29T05:35:00.163Z,39.38
2023-03-29T05:36:00.192Z,45.00
2023-03-29T05:37:00.141Z,45.00
2023-03-29T05:38:00.149Z,45.00
2023-03-29T05:39:00.096Z,50.62
2023-03-29T05:40:06.190Z,50.62
2023-03-29T05:41:01.328Z,56.25
2023-03-29T05:42:00.107Z,61.88
2023-03-29T05:43:00.050Z,61.88
2023-03-29T05:44:00.028Z,61.88
2023-03-29T05:45:00.031Z,61.88
2023-03-29T05:46:00.009Z,67.50
2023-03-29T05:46:59.992Z,67.50
2023-03-29T05:48:00.007Z,73.12
2023-03-29T05:48:59.972Z,78.75
2023-03-29T05:50:00.043Z,84.38
2023-03-29T05:51:00.032Z,84.38
2023-03-29T05:51:59.920Z,84.38
2023-03-29T05:52:59.905Z,84.38
2023-03-29T05:53:59.912Z,90.00
2023-03-29T05:54:59.874Z,95.62
2023-03-29T05:55:59.861Z,95.62
2023-03-29T05:56:59.873Z,101.25
2023-03-29T05:57:59.835Z,106.88
2023-03-29T05:58:59.827Z,106.88
2023-03-29T05:59:59.831Z,106.88
2023-03-29T06:00:59.980Z,106.88
2023-03-29T06:01:59.860Z,106.88
2023-03-29T06:03:10.098Z,106.88
2023-03-29T06:04:01.050Z,101.25
2023-03-29T06:04:59.755Z,106.88
2023-03-29T06:05:59.732Z,106.88
2023-03-29T06:06:59.722Z,106.88
2023-03-29T06:07:59.704Z,101.25
2023-03-29T06:08:59.685Z,101.25
2023-03-29T06:09:59.698Z,101.25
2023-03-29T06:11:01.167Z,106.88
2023-03-29T06:11:59.657Z,112.50
2023-03-29T06:12:59.644Z,118.12
2023-03-29T06:13:59.823Z,118.12
2023-03-29T06:14:59.635Z,123.75
2023-03-29T06:15:59.594Z,123.75
2023-03-29T06:16:59.718Z,118.12
2023-03-29T06:17:59.635Z,118.12
2023-03-29T06:18:59.551Z,118.12
2023-03-29T06:19:59.537Z,123.75
2023-03-29T06:20:59.659Z,123.75
2023-03-29T06:21:59.515Z,123.75
2023-03-29T06:22:59.500Z,135.00
2023-03-29T06:23:59.493Z,140.62
2023-03-29T06:24:59.478Z,151.88
2023-03-29T06:25:59.481Z,163.12
2023-03-29T06:26:59.445Z,163.12
2023-03-29T06:27:59.436Z,157.50
2023-03-29T06:28:59.426Z,151.88
2023-03-29T06:29:59.408Z,151.88
2023-03-29T06:30:59.466Z,140.62
2023-03-29T06:31:59.371Z,123.75
2023-03-29T06:32:59.404Z,106.88
2023-03-29T06:33:59.350Z,101.25
2023-03-29T06:34:59.334Z,95.62
2023-03-29T06:35:59.401Z,95.62
2023-03-29T06:36:59.310Z,95.62
2023-03-29T06:37:59.296Z,95.62
2023-03-29T06:38:59.286Z,95.62
2023-03-29T06:39:59.278Z,101.25
2023-03-29T06:40:59.332Z,101.25
2023-03-29T06:42:00.824Z,106.88
2023-03-29T06:42:59.237Z,112.50
2023-03-29T06:43:59.230Z,123.75
2023-03-29T06:44:59.207Z,129.38
2023-03-29T06:45:59.224Z,129.38
2023-03-29T06:46:59.185Z,135.00
2023-03-29T06:47:59.276Z,140.62
2023-03-29T06:48:59.147Z,140.62
2023-03-29T06:49:59.129Z,146.25
2023-03-29T06:50:59.127Z,157.50
2023-03-29T06:51:59.297Z,163.12
2023-03-29T06:52:59.096Z,168.75
2023-03-29T06:53:59.089Z,174.38
2023-03-29T06:54:59.067Z,163.12
2023-03-29T06:55:59.051Z,163.12
2023-03-29T06:56:59.075Z,163.12
2023-03-29T06:58:00.990Z,163.12
2023-03-29T06:58:59.009Z,163.12
2023-03-29T06:59:59.019Z,168.75
2023-03-29T07:00:59.008Z,168.75
2023-03-29T07:01:59.093Z,163.12
2023-03-29T07:02:59.067Z,168.75
2023-03-29T07:03:58.961Z,174.38
2023-03-29T07:04:58.924Z,174.38
2023-03-29T07:05:58.910Z,191.25
2023-03-29T07:06:58.904Z,208.12
2023-03-29T07:07:58.894Z,219.38
2023-03-29T07:08:58.878Z,241.88
2023-03-29T07:09:58.862Z,253.12
2023-03-29T07:10:58.861Z,264.38
2023-03-29T07:11:58.842Z,292.50
2023-03-29T07:12:58.966Z,286.88
2023-03-29T07:13:58.829Z,298.12
2023-03-29T07:14:58.802Z,331.88
2023-03-29T07:15:58.869Z,343.12
2023-03-29T07:16:58.773Z,348.75
2023-03-29T07:17:58.830Z,360.00
2023-03-29T07:18:58.876Z,399.38
2023-03-29T07:19:58.720Z,360.00
2023-03-29T07:20:59.242Z,315.00
2023-03-29T07:21:58.700Z,298.12
2023-03-29T07:22:58.677Z,292.50
2023-03-29T07:23:58.672Z,298.12
2023-03-29T07:24:58.653Z,315.00
2023-03-29T07:25:58.646Z,337.50
2023-03-29T07:27:04.062Z,360.00
2023-03-29T07:27:58.621Z,371.25
2023-03-29T07:28:58.599Z,354.38
2023-03-29T07:29:58.616Z,337.50
2023-03-29T07:30:58.589Z,315.00
2023-03-29T07:31:58.568Z,309.38
2023-03-29T07:32:58.626Z,298.12
2023-03-29T07:33:58.538Z,292.50
2023-03-29T07:34:58.518Z,281.25
2023-03-29T07:35:58.517Z,275.62
2023-03-29T07:36:58.488Z,264.38
2023-03-29T07:37:58.475Z,253.12
2023-03-29T07:38:58.463Z,247.50
2023-03-29T07:39:58.448Z,258.75
2023-03-29T07:40:58.430Z,264.38
2023-03-29T07:41:58.427Z,281.25
2023-03-29T07:42:58.409Z,286.88
2023-03-29T07:43:58.398Z,281.25
2023-03-29T07:44:58.385Z,264.38
2023-03-29T07:45:58.741Z,247.50
2023-03-29T07:46:58.383Z,241.88
2023-03-29T07:47:58.691Z,230.62
2023-03-29T07:48:58.334Z,230.62
2023-03-29T07:49:58.304Z,225.00
2023-03-29T07:50:58.288Z,225.00
2023-03-29T07:51:58.290Z,225.00
2023-03-29T07:52:58.270Z,236.25
2023-03-29T07:53:58.269Z,241.88
2023-03-29T07:54:58.239Z,241.88
2023-03-29T07:55:58.228Z,241.88
2023-03-29T07:56:58.253Z,241.88
2023-03-29T07:57:58.200Z,241.88
2023-03-29T07:58:58.182Z,236.25
2023-03-29T07:59:58.175Z,247.50
2023-03-29T08:00:58.210Z,264.38
2023-03-29T08:01:58.164Z,270.00
2023-03-29T08:02:58.183Z,270.00
2023-03-29T08:03:58.226Z,264.38
2023-03-29T08:04:58.136Z,270.00
2023-03-29T08:05:58.088Z,275.62
2023-03-29T08:06:58.093Z,286.88
2023-03-29T08:07:58.078Z,298.12
2023-03-29T08:08:58.060Z,298.12
2023-03-29T08:09:58.040Z,303.75
2023-03-29T08:10:58.015Z,309.38
2023-03-29T08:11:58.005Z,320.62
2023-03-29T08:12:58.002Z,315.00
2023-03-29T08:13:57.981Z,303.75
2023-03-29T08:14:57.969Z,292.50
2023-03-29T08:15:57.959Z,270.00
2023-03-29T08:16:57.959Z,247.50
2023-03-29T08:17:57.982Z,236.25
2023-03-29T08:18:57.927Z,230.62
2023-03-29T08:19:57.902Z,225.00
2023-03-29T08:20:58.164Z,230.62
2023-03-29T08:21:57.880Z,230.62
2023-03-29T08:22:57.861Z,230.62
2023-03-29T08:23:57.851Z,236.25
2023-03-29T08:24:57.842Z,236.25
2023-03-29T08:25:57.828Z,241.88
2023-03-29T08:26:57.824Z,253.12
2023-03-29T08:27:57.791Z,264.38
2023-03-29T08:28:57.776Z,275.62
2023-03-29T08:29:57.767Z,275.62
2023-03-29T08:30:57.825Z,275.62
2023-03-29T08:31:57.742Z,264.38
2023-03-29T08:32:57.744Z,253.12
2023-03-29T08:33:57.753Z,253.12
2023-03-29T08:34:57.719Z,264.38
2023-03-29T08:35:57.726Z,281.25
2023-03-29T08:36:57.667Z,309.38
2023-03-29T08:37:57.658Z,331.88
2023-03-29T08:38:57.662Z,348.75
2023-03-29T08:39:57.635Z,360.00
2023-03-29T08:40:57.618Z,360.00
2023-03-29T08:41:57.606Z,360.00
2023-03-29T08:42:57.592Z,343.12
2023-03-29T08:43:57.581Z,326.25
2023-03-29T08:44:57.573Z,303.75
2023-03-29T08:45:57.577Z,286.88
2023-03-29T08:46:57.597Z,275.62
2023-03-29T08:47:57.599Z,281.25
2023-03-29T08:48:57.566Z,303.75
2023-03-29T08:49:57.520Z,331.88
2023-03-29T08:50:57.554Z,371.25
2023-03-29T08:51:57.470Z,421.88
2023-03-29T08:52:57.459Z,444.38
2023-03-29T08:53:57.447Z,427.50
2023-03-29T08:54:57.439Z,399.38
2023-03-29T08:55:57.429Z,376.88
2023-03-29T08:56:57.408Z,354.38
2023-03-29T08:57:57.385Z,331.88
2023-03-29T08:58:57.374Z,320.62
2023-03-29T08:59:57.369Z,315.00
2023-03-29T09:00:57.356Z,298.12
2023-03-29T09:01:57.426Z,286.88
2023-03-29T09:02:57.495Z,281.25
2023-03-29T09:03:57.406Z,286.88
2023-03-29T09:04:57.305Z,298.12
2023-03-29T09:05:57.302Z,309.38
2023-03-29T09:06:57.267Z,320.62
2023-03-29T09:07:57.253Z,331.88
2023-03-29T09:08:57.245Z,365.62
2023-03-29T09:09:57.255Z,388.12
2023-03-29T09:10:57.212Z,388.12
2023-03-29T09:11:57.193Z,376.88
2023-03-29T09:12:57.209Z,376.88
2023-03-29T09:13:57.167Z,399.38
2023-03-29T09:14:57.150Z,450.00
2023-03-29T09:15:57.192Z,478.12
2023-03-29T09:16:57.124Z,483.75
2023-03-29T09:17:57.143Z,466.88
2023-03-29T09:18:57.098Z,450.00
2023-03-29T09:19:57.083Z,472.50
2023-03-29T09:20:57.082Z,461.25
2023-03-29T09:21:57.079Z,478.12
2023-03-29T09:22:57.068Z,500.62
2023-03-29T09:23:57.032Z,506.25
2023-03-29T09:24:57.012Z,528.75
2023-03-29T09:25:57.005Z,562.50
2023-03-29T09:26:56.991Z,596.25
2023-03-29T09:27:56.972Z,641.25
2023-03-29T09:28:56.958Z,680.62
2023-03-29T09:29:56.944Z,669.38
2023-03-29T09:30:56.932Z,613.12
2023-03-29T09:31:57.063Z,562.50
2023-03-29T09:32:56.990Z,545.62
2023-03-29T09:33:56.892Z,540.00
2023-03-29T09:34:56.876Z,562.50
2023-03-29T09:35:56.882Z,596.25
2023-03-29T09:36:56.865Z,635.62
2023-03-29T09:37:56.856Z,675.00
2023-03-29T09:38:56.823Z,731.25
2023-03-29T09:39:57.008Z,765.00
2023-03-29T09:40:56.788Z,742.50
2023-03-29T09:41:56.776Z,708.75
2023-03-29T09:42:56.783Z,708.75
2023-03-29T09:43:56.759Z,753.75
2023-03-29T09:44:56.742Z,900.00
2023-03-29T09:45:56.778Z,916.88
2023-03-29T09:46:56.717Z,984.38
2023-03-29T09:47:56.790Z,1040.62
2023-03-29T09:48:56.693Z,1018.12
2023-03-29T09:49:56.673Z,877.50
2023-03-29T09:50:56.672Z,810.00
2023-03-29T09:51:56.640Z,793.12
2023-03-29T09:52:56.636Z,798.75
2023-03-29T09:53:56.636Z,984.38
2023-03-29T09:54:56.602Z,1091.25
2023-03-29T09:55:56.588Z,1006.88
2023-03-29T09:56:56.609Z,905.62
2023-03-29T09:57:56.560Z,871.88
2023-03-29T09:58:56.545Z,810.00
2023-03-29T09:59:56.551Z,838.12
2023-03-29T10:00:56.537Z,911.25
2023-03-29T10:01:56.529Z,961.88
2023-03-29T10:02:56.539Z,939.38
2023-03-29T10:03:56.503Z,894.38
2023-03-29T10:04:56.469Z,888.75
2023-03-29T10:05:56.447Z,916.88
2023-03-29T10:06:56.439Z,967.50
2023-03-29T10:07:56.436Z,978.75
2023-03-29T10:08:56.426Z,1012.50
2023-03-29T10:09:56.453Z,1023.75
2023-03-29T10:10:56.394Z,978.75
2023-03-29T10:11:56.375Z,1040.62
2023-03-29T10:12:56.362Z,1068.75
2023-03-29T10:13:56.346Z,1147.50
2023-03-29T10:14:56.332Z,1265.62
2023-03-29T10:15:56.330Z,1338.75
2023-03-29T10:16:56.576Z,1338.75
2023-03-29T10:17:56.351Z,1288.12
2023-03-29T10:18:56.283Z,1282.50
2023-03-29T10:19:56.265Z,1276.88
2023-03-29T10:20:56.252Z,1310.62
2023-03-29T10:21:56.243Z,1220.62
2023-03-29T10:22:56.240Z,1265.62
2023-03-29T10:23:56.226Z,1383.75
2023-03-29T10:24:56.219Z,1479.38
2023-03-29T10:25:56.227Z,1614.38
2023-03-29T10:26:56.199Z,1951.88
2023-03-29T10:27:56.170Z,1805.62
2023-03-29T10:28:56.157Z,1636.88
2023-03-29T10:29:56.145Z,1732.50
2023-03-29T10:30:56.126Z,2418.75
2023-03-29T10:31:56.412Z,2165.62
2023-03-29T10:32:56.165Z,1451.25
2023-03-29T10:33:56.088Z,1743.75
2023-03-29T10:34:56.072Z,1170.00
2023-03-29T10:35:56.074Z,1220.62
2023-03-29T10:36:56.048Z,1091.25
2023-03-29T10:37:56.233Z,1057.50
2023-03-29T10:38:56.031Z,1074.38
2023-03-29T10:39:56.008Z,1074.38
2023-03-29T10:40:56.000Z,1372.50
2023-03-29T10:41:56.008Z,973.12
2023-03-29T10:42:55.999Z,984.38
2023-03-29T10:43:55.949Z,984.38
2023-03-29T10:44:55.970Z,967.50
2023-03-29T10:45:56.032Z,1063.12
2023-03-29T10:46:55.918Z,1001.25
2023-03-29T10:47:55.924Z,984.38
2023-03-29T10:48:55.898Z,939.38
2023-03-29T10:49:56.959Z,916.88
2023-03-29T10:50:55.870Z,916.88
2023-03-29T10:51:55.853Z,956.25
2023-03-29T10:52:55.835Z,956.25
2023-03-29T10:53:55.817Z,1023.75
2023-03-29T10:54:55.821Z,1085.62
2023-03-29T10:55:55.790Z,1001.25
2023-03-29T10:56:55.796Z,922.50
2023-03-29T10:57:55.803Z,978.75
2023-03-29T10:58:55.749Z,1040.62
2023-03-29T10:59:55.832Z,1023.75
2023-03-29T11:00:55.749Z,1018.12
2023-03-29T11:01:55.797Z,995.62
2023-03-29T11:02:55.790Z,866.25
2023-03-29T11:03:55.941Z,759.38
2023-03-29T11:04:55.674Z,663.75
2023-03-29T11:05:55.679Z,573.75
2023-03-29T11:06:55.661Z,511.88
2023-03-29T11:07:55.636Z,489.38
2023-03-29T11:08:55.689Z,523.12
2023-03-29T11:09:55.615Z,551.25
2023-03-29T11:10:55.598Z,540.00
2023-03-29T11:12:01.274Z,511.88
2023-03-29T11:12:56.590Z,511.88
2023-03-29T11:13:57.043Z,500.62
2023-03-29T11:14:55.566Z,483.75
2023-03-29T11:15:55.604Z,500.62
2023-03-29T11:16:55.534Z,545.62
2023-03-29T11:17:55.556Z,601.88
2023-03-29T11:18:55.506Z,635.62
2023-03-29T11:19:55.523Z,663.75
2023-03-29T11:20:55.482Z,697.50
2023-03-29T11:21:55.491Z,697.50
2023-03-29T11:22:55.440Z,691.88
2023-03-29T11:23:55.439Z,669.38
2023-03-29T11:24:55.413Z,675.00
2023-03-29T11:25:55.388Z,652.50
2023-03-29T11:26:55.396Z,618.75
2023-03-29T11:27:55.377Z,556.88
2023-03-29T11:28:55.359Z,562.50
2023-03-29T11:29:55.350Z,573.75
2023-03-29T11:30:55.421Z,489.38
2023-03-29T11:31:55.388Z,421.88
2023-03-29T11:32:55.360Z,421.88
2023-03-29T11:33:55.282Z,433.12
2023-03-29T11:34:55.281Z,399.38
2023-03-29T11:35:55.321Z,376.88
2023-03-29T11:36:55.253Z,354.38
2023-03-29T11:37:55.250Z,337.50
2023-03-29T11:38:55.310Z,331.88
2023-03-29T11:39:55.199Z,320.62
2023-03-29T11:40:55.200Z,326.25
2023-03-29T11:41:55.170Z,303.75
2023-03-29T11:42:55.162Z,286.88
2023-03-29T11:43:55.220Z,298.12
2023-03-29T11:44:55.244Z,331.88
2023-03-29T11:45:55.133Z,371.25
2023-03-29T11:46:55.660Z,433.12
2023-03-29T11:47:55.121Z,511.88
2023-03-29T11:48:55.079Z,573.75
2023-03-29T11:49:55.073Z,579.38
2023-03-29T11:50:55.059Z,573.75
2023-03-29T11:51:55.035Z,585.00
2023-03-29T11:52:55.031Z,551.25
2023-03-29T11:53:55.207Z,478.12
2023-03-29T11:54:54.989Z,433.12
2023-03-29T11:55:55.018Z,495.00
2023-03-29T11:56:54.993Z,545.62
2023-03-29T11:57:54.949Z,568.12
2023-03-29T11:58:55.041Z,545.62
2023-03-29T11:59:54.930Z,511.88
2023-03-29T12:00:54.915Z,450.00
2023-03-29T12:01:54.974Z,399.38
2023-03-29T12:02:54.970Z,382.50
2023-03-29T12:03:55.099Z,382.50
2023-03-29T12:04:54.857Z,348.75
2023-03-29T12:05:54.848Z,320.62
2023-03-29T12:06:54.842Z,337.50
2023-03-29T12:07:54.828Z,365.62
2023-03-29T12:08:54.820Z,388.12
2023-03-29T12:09:54.798Z,371.25
2023-03-29T12:10:54.788Z,331.88
2023-03-29T12:11:54.760Z,292.50
2023-03-29T12:12:54.758Z,281.25
2023-03-29T12:13:54.734Z,303.75
2023-03-29T12:14:54.725Z,309.38
2023-03-29T12:15:54.712Z,298.12
2023-03-29T12:16:54.747Z,281.25
2023-03-29T12:17:54.760Z,270.00
2023-03-29T12:18:54.681Z,275.62
2023-03-29T12:19:54.653Z,281.25
2023-03-29T12:20:54.643Z,275.62
2023-03-29T12:21:54.642Z,281.25
2023-03-29T12:22:54.618Z,303.75
2023-03-29T12:23:54.601Z,348.75
2023-03-29T12:24:54.596Z,388.12
2023-03-29T12:25:54.588Z,382.50
2023-03-29T12:26:54.560Z,365.62
2023-03-29T12:27:54.546Z,365.62
2023-03-29T12:28:54.536Z,376.88
2023-03-29T12:29:54.518Z,382.50
2023-03-29T12:30:54.505Z,405.00
2023-03-29T12:31:54.527Z,416.25
2023-03-29T12:32:54.548Z,399.38
2023-03-29T12:33:54.495Z,382.50
2023-03-29T12:34:54.454Z,348.75
2023-03-29T12:35:54.451Z,270.00
2023-03-29T12:36:54.422Z,236.25
2023-03-29T12:37:54.409Z,253.12
2023-03-29T12:38:54.397Z,303.75
2023-03-29T12:39:54.388Z,309.38
2023-03-29T12:40:54.378Z,309.38
2023-03-29T12:41:54.365Z,360.00
2023-03-29T12:42:54.360Z,438.75
2023-03-29T12:43:54.336Z,489.38
2023-03-29T12:44:54.332Z,517.50
2023-03-29T12:45:54.342Z,585.00
2023-03-29T12:46:54.324Z,624.38
2023-03-29T12:47:54.349Z,624.38